Dod Ballapur, India
Current Conditions -  °F | °C
As of 11:00 AM on Sunday 23 Nov 2014 (Local Time) from VOBL Reporting Station
Few Clouds Few Clouds  
Wind Chill: 84°   Ceiling: Unl
Heat Index: 86°   Visibility: 4mi
Dew Point: 64°   Wind: 8mph
Humidity: 51%   Direction: NA
Pressure: 30.06"   Gusts: NA
Location:  13.29°N, 77.53°E
Report Text: VOBL 230600Z VRB07KT 6000 FEW015 29/18 Q1018 NOSIG
Loading
Personal Weather Stations






























Interactive Weather Map New forecast layout! Learn more

10-Day Weather Forecast

Advertisements
Track Severe Weather on mobile